sensor_id;sensor_type;location;lat;lon;timestamp;P1;durP1;ratioP1;P2;durP2;ratioP2
3004;SDS011;1512;51.486;6.610;2023-04-15T00:00:58;8.90;;;6.67;;
3004;SDS011;1512;51.486;6.610;2023-04-15T00:05:07;9.87;;;7.20;;
3004;SDS011;1512;51.486;6.610;2023-04-15T00:09:16;7.97;;;7.17;;
3004;SDS011;1512;51.486;6.610;2023-04-15T00:13:25;7.53;;;6.73;;
3004;SDS011;1512;51.486;6.610;2023-04-15T00:17:34;11.17;;;6.30;;
3004;SDS011;1512;51.486;6.610;2023-04-15T00:21:45;10.63;;;6.67;;
3004;SDS011;1512;51.486;6.610;2023-04-15T00:25:53;8.80;;;6.33;;
3004;SDS011;1512;51.486;6.610;2023-04-15T00:30:02;6.77;;;6.10;;
3004;SDS011;1512;51.486;6.610;2023-04-15T00:34:11;9.33;;;6.93;;
3004;SDS011;1512;51.486;6.610;2023-04-15T00:38:20;11.80;;;7.43;;
3004;SDS011;1512;51.486;6.610;2023-04-15T00:42:29;9.67;;;7.03;;
3004;SDS011;1512;51.486;6.610;2023-04-15T00:46:38;7.53;;;6.80;;
3004;SDS011;1512;51.486;6.610;2023-04-15T00:50:47;10.33;;;7.00;;
3004;SDS011;1512;51.486;6.610;2023-04-15T00:54:55;13.37;;;6.93;;
3004;SDS011;1512;51.486;6.610;2023-04-15T00:59:04;15.10;;;7.50;;
3004;SDS011;1512;51.486;6.610;2023-04-15T01:03:13;11.27;;;6.90;;
3004;SDS011;1512;51.486;6.610;2023-04-15T01:07:22;6.70;;;5.90;;
3004;SDS011;1512;51.486;6.610;2023-04-15T01:11:31;9.23;;;7.40;;
3004;SDS011;1512;51.486;6.610;2023-04-15T01:15:43;8.97;;;6.00;;
3004;SDS011;1512;51.486;6.610;2023-04-15T01:19:52;9.13;;;7.20;;
3004;SDS011;1512;51.486;6.610;2023-04-15T01:24:07;10.53;;;6.50;;
3004;SDS011;1512;51.486;6.610;2023-04-15T01:28:17;9.17;;;8.27;;
3004;SDS011;1512;51.486;6.610;2023-04-15T01:32:26;8.43;;;7.33;;
3004;SDS011;1512;51.486;6.610;2023-04-15T01:36:37;10.43;;;8.50;;
3004;SDS011;1512;51.486;6.610;2023-04-15T01:40:47;13.60;;;8.47;;
3004;SDS011;1512;51.486;6.610;2023-04-15T01:44:55;12.63;;;9.43;;
3004;SDS011;1512;51.486;6.610;2023-04-15T01:49:04;13.97;;;9.27;;
3004;SDS011;1512;51.486;6.610;2023-04-15T01:53:13;11.27;;;8.60;;
3004;SDS011;1512;51.486;6.610;2023-04-15T01:57:22;13.50;;;10.40;;
3004;SDS011;1512;51.486;6.610;2023-04-15T02:01:31;9.17;;;8.13;;
3004;SDS011;1512;51.486;6.610;2023-04-15T02:05:40;11.90;;;7.60;;
3004;SDS011;1512;51.486;6.610;2023-04-15T02:09:49;11.87;;;8.87;;
3004;SDS011;1512;51.486;6.610;2023-04-15T02:13:58;13.03;;;7.37;;
3004;SDS011;1512;51.486;6.610;2023-04-15T02:18:06;9.40;;;7.10;;
3004;SDS011;1512;51.486;6.610;2023-04-15T02:22:15;8.10;;;6.47;;
3004;SDS011;1512;51.486;6.610;2023-04-15T02:26:24;9.90;;;6.93;;
3004;SDS011;1512;51.486;6.610;2023-04-15T02:30:33;14.07;;;7.60;;
3004;SDS011;1512;51.486;6.610;2023-04-15T02:34:42;9.77;;;6.97;;
3004;SDS011;1512;51.486;6.610;2023-04-15T02:38:50;10.23;;;7.40;;
3004;SDS011;1512;51.486;6.610;2023-04-15T02:42:59;13.47;;;7.60;;
3004;SDS011;1512;51.486;6.610;2023-04-15T02:47:08;7.47;;;6.67;;
3004;SDS011;1512;51.486;6.610;2023-04-15T02:51:18;11.10;;;8.07;;
3004;SDS011;1512;51.486;6.610;2023-04-15T02:55:28;8.50;;;6.67;;
3004;SDS011;1512;51.486;6.610;2023-04-15T02:59:37;10.50;;;7.07;;
3004;SDS011;1512;51.486;6.610;2023-04-15T03:03:45;9.00;;;6.47;;
3004;SDS011;1512;51.486;6.610;2023-04-15T03:07:54;7.77;;;5.83;;
3004;SDS011;1512;51.486;6.610;2023-04-15T03:12:03;10.40;;;6.70;;
3004;SDS011;1512;51.486;6.610;2023-04-15T03:16:12;9.20;;;7.20;;
3004;SDS011;1512;51.486;6.610;2023-04-15T03:20:20;8.80;;;6.60;;
3004;SDS011;1512;51.486;6.610;2023-04-15T03:24:30;7.60;;;5.77;;
3004;SDS011;1512;51.486;6.610;2023-04-15T03:28:38;8.90;;;7.17;;
3004;SDS011;1512;51.486;6.610;2023-04-15T03:37:15;8.33;;;5.97;;
3004;SDS011;1512;51.486;6.610;2023-04-15T03:41:24;7.80;;;6.95;;
3004;SDS011;1512;51.486;6.610;2023-04-15T03:45:32;7.87;;;6.40;;
3004;SDS011;1512;51.486;6.610;2023-04-15T03:49:42;8.30;;;6.80;;
3004;SDS011;1512;51.486;6.610;2023-04-15T03:53:50;10.87;;;6.60;;
3004;SDS011;1512;51.486;6.610;2023-04-15T03:57:59;7.30;;;6.40;;
3004;SDS011;1512;51.486;6.610;2023-04-15T04:02:08;10.97;;;6.30;;
3004;SDS011;1512;51.486;6.610;2023-04-15T04:06:17;8.07;;;5.93;;
3004;SDS011;1512;51.486;6.610;2023-04-15T04:10:25;8.43;;;6.40;;
3004;SDS011;1512;51.486;6.610;2023-04-15T04:14:34;9.90;;;6.70;;
3004;SDS011;1512;51.486;6.610;2023-04-15T04:18:42;6.93;;;6.07;;
3004;SDS011;1512;51.486;6.610;2023-04-15T04:22:51;12.17;;;7.23;;
3004;SDS011;1512;51.486;6.610;2023-04-15T04:27:00;8.00;;;6.70;;
3004;SDS011;1512;51.486;6.610;2023-04-15T04:31:09;12.60;;;7.27;;
3004;SDS011;1512;51.486;6.610;2023-04-15T04:35:18;10.23;;;7.50;;
3004;SDS011;1512;51.486;6.610;2023-04-15T04:39:30;11.17;;;7.17;;
3004;SDS011;1512;51.486;6.610;2023-04-15T04:43:39;15.13;;;7.00;;
3004;SDS011;1512;51.486;6.610;2023-04-15T04:47:48;11.20;;;7.93;;
3004;SDS011;1512;51.486;6.610;2023-04-15T04:51:57;8.10;;;6.60;;
3004;SDS011;1512;51.486;6.610;2023-04-15T04:56:06;7.87;;;7.00;;
3004;SDS011;1512;51.486;6.610;2023-04-15T05:00:15;8.40;;;6.73;;
3004;SDS011;1512;51.486;6.610;2023-04-15T05:04:24;9.00;;;6.70;;
3004;SDS011;1512;51.486;6.610;2023-04-15T05:08:32;8.73;;;7.83;;
3004;SDS011;1512;51.486;6.610;2023-04-15T05:12:41;14.03;;;8.40;;
3004;SDS011;1512;51.486;6.610;2023-04-15T05:16:50;10.80;;;6.83;;
3004;SDS011;1512;51.486;6.610;2023-04-15T05:20:58;9.83;;;7.53;;
3004;SDS011;1512;51.486;6.610;2023-04-15T05:25:07;8.97;;;6.47;;
3004;SDS011;1512;51.486;6.610;2023-04-15T05:29:16;8.23;;;6.97;;
3004;SDS011;1512;51.486;6.610;2023-04-15T05:33:25;10.40;;;6.47;;
3004;SDS011;1512;51.486;6.610;2023-04-15T05:37:34;9.13;;;7.10;;
3004;SDS011;1512;51.486;6.610;2023-04-15T05:41:42;7.97;;;6.97;;
3004;SDS011;1512;51.486;6.610;2023-04-15T05:45:54;11.13;;;7.33;;
3004;SDS011;1512;51.486;6.610;2023-04-15T05:50:13;9.10;;;7.35;;
3004;SDS011;1512;51.486;6.610;2023-04-15T05:54:21;8.50;;;6.80;;
3004;SDS011;1512;51.486;6.610;2023-04-15T05:58:30;12.10;;;7.67;;
3004;SDS011;1512;51.486;6.610;2023-04-15T06:02:39;9.97;;;7.80;;
3004;SDS011;1512;51.486;6.610;2023-04-15T06:06:48;10.63;;;7.00;;
3004;SDS011;1512;51.486;6.610;2023-04-15T06:10:57;13.30;;;9.07;;
3004;SDS011;1512;51.486;6.610;2023-04-15T06:15:06;12.93;;;8.30;;
3004;SDS011;1512;51.486;6.610;2023-04-15T06:19:17;12.10;;;8.03;;
3004;SDS011;1512;51.486;6.610;2023-04-15T06:23:26;11.47;;;8.90;;
3004;SDS011;1512;51.486;6.610;2023-04-15T06:32:02;12.33;;;8.50;;
3004;SDS011;1512;51.486;6.610;2023-04-15T06:36:11;12.70;;;9.53;;
3004;SDS011;1512;51.486;6.610;2023-04-15T06:40:26;12.37;;;9.50;;
3004;SDS011;1512;51.486;6.610;2023-04-15T06:44:35;12.90;;;10.53;;
3004;SDS011;1512;51.486;6.610;2023-04-15T06:48:45;11.73;;;9.30;;
3004;SDS011;1512;51.486;6.610;2023-04-15T06:52:54;14.53;;;8.73;;
3004;SDS011;1512;51.486;6.610;2023-04-15T06:57:07;12.17;;;9.67;;
3004;SDS011;1512;51.486;6.610;2023-04-15T07:01:16;14.10;;;9.53;;
3004;SDS011;1512;51.486;6.610;2023-04-15T07:05:29;13.77;;;8.50;;
3004;SDS011;1512;51.486;6.610;2023-04-15T07:09:38;12.47;;;10.00;;
3004;SDS011;1512;51.486;6.610;2023-04-15T07:13:47;20.60;;;9.90;;
3004;SDS011;1512;51.486;6.610;2023-04-15T07:17:58;13.80;;;9.13;;
3004;SDS011;1512;51.486;6.610;2023-04-15T07:22:06;11.47;;;8.40;;
3004;SDS011;1512;51.486;6.610;2023-04-15T07:26:15;10.03;;;8.10;;
3004;SDS011;1512;51.486;6.610;2023-04-15T07:30:28;13.13;;;8.97;;
3004;SDS011;1512;51.486;6.610;2023-04-15T07:34:38;8.80;;;6.40;;
3004;SDS011;1512;51.486;6.610;2023-04-15T07:38:48;10.27;;;6.50;;
3004;SDS011;1512;51.486;6.610;2023-04-15T07:42:56;8.43;;;6.40;;
3004;SDS011;1512;51.486;6.610;2023-04-15T07:47:09;9.57;;;6.73;;
3004;SDS011;1512;51.486;6.610;2023-04-15T07:51:21;8.30;;;6.20;;
3004;SDS011;1512;51.486;6.610;2023-04-15T07:55:33;6.85;;;4.60;;
3004;SDS011;1512;51.486;6.610;2023-04-15T07:59:41;4.80;;;3.93;;
3004;SDS011;1512;51.486;6.610;2023-04-15T08:03:50;5.80;;;4.47;;
3004;SDS011;1512;51.486;6.610;2023-04-15T08:07:59;4.77;;;4.30;;
3004;SDS011;1512;51.486;6.610;2023-04-15T08:12:08;6.17;;;4.80;;
3004;SDS011;1512;51.486;6.610;2023-04-15T08:16:24;6.97;;;4.40;;
3004;SDS011;1512;51.486;6.610;2023-04-15T08:20:50;6.90;;;4.17;;
3004;SDS011;1512;51.486;6.610;2023-04-15T08:24:59;5.40;;;4.10;;
3004;SDS011;1512;51.486;6.610;2023-04-15T08:29:08;5.03;;;4.40;;
3004;SDS011;1512;51.486;6.610;2023-04-15T08:33:16;7.47;;;6.47;;
3004;SDS011;1512;51.486;6.610;2023-04-15T08:37:26;5.47;;;4.90;;
3004;SDS011;1512;51.486;6.610;2023-04-15T08:41:45;4.60;;;4.17;;
3004;SDS011;1512;51.486;6.610;2023-04-15T08:46:02;5.30;;;4.67;;
3004;SDS011;1512;51.486;6.610;2023-04-15T08:50:12;8.53;;;5.67;;
3004;SDS011;1512;51.486;6.610;2023-04-15T08:54:23;4.53;;;4.13;;
3004;SDS011;1512;51.486;6.610;2023-04-15T08:58:33;11.13;;;4.53;;
3004;SDS011;1512;51.486;6.610;2023-04-15T09:02:43;7.63;;;4.93;;
3004;SDS011;1512;51.486;6.610;2023-04-15T09:06:52;6.43;;;4.40;;
3004;SDS011;1512;51.486;6.610;2023-04-15T09:11:01;5.53;;;4.23;;
3004;SDS011;1512;51.486;6.610;2023-04-15T09:15:10;4.57;;;3.97;;
3004;SDS011;1512;51.486;6.610;2023-04-15T09:19:20;6.60;;;4.80;;
3004;SDS011;1512;51.486;6.610;2023-04-15T09:23:30;6.27;;;4.23;;
3004;SDS011;1512;51.486;6.610;2023-04-15T09:27:51;5.63;;;4.00;;
3004;SDS011;1512;51.486;6.610;2023-04-15T09:32:10;7.80;;;5.23;;
3004;SDS011;1512;51.486;6.610;2023-04-15T09:36:23;6.77;;;4.80;;
3004;SDS011;1512;51.486;6.610;2023-04-15T09:40:42;5.07;;;4.50;;
3004;SDS011;1512;51.486;6.610;2023-04-15T09:44:48;5.67;;;4.20;;
3004;SDS011;1512;51.486;6.610;2023-04-15T09:49:10;5.83;;;4.73;;
3004;SDS011;1512;51.486;6.610;2023-04-15T09:53:22;6.08;;;4.78;;
3004;SDS011;1512;51.486;6.610;2023-04-15T09:57:34;5.80;;;4.10;;
3004;SDS011;1512;51.486;6.610;2023-04-15T10:01:44;5.60;;;4.00;;
3004;SDS011;1512;51.486;6.610;2023-04-15T10:05:54;6.43;;;4.40;;
3004;SDS011;1512;51.486;6.610;2023-04-15T10:10:04;4.83;;;4.03;;
3004;SDS011;1512;51.486;6.610;2023-04-15T10:14:14;5.67;;;4.70;;
3004;SDS011;1512;51.486;6.610;2023-04-15T10:18:25;5.50;;;4.63;;
3004;SDS011;1512;51.486;6.610;2023-04-15T10:22:35;6.27;;;5.40;;
3004;SDS011;1512;51.486;6.610;2023-04-15T10:26:45;6.50;;;5.10;;
3004;SDS011;1512;51.486;6.610;2023-04-15T10:30:54;7.20;;;4.90;;
3004;SDS011;1512;51.486;6.610;2023-04-15T10:35:05;6.33;;;4.70;;
3004;SDS011;1512;51.486;6.610;2023-04-15T10:43:54;6.93;;;5.70;;
3004;SDS011;1512;51.486;6.610;2023-04-15T10:48:11;6.27;;;4.77;;
3004;SDS011;1512;51.486;6.610;2023-04-15T10:56:31;6.50;;;4.53;;
3004;SDS011;1512;51.486;6.610;2023-04-15T11:00:40;5.13;;;4.20;;
3004;SDS011;1512;51.486;6.610;2023-04-15T11:09:04;5.30;;;4.27;;
3004;SDS011;1512;51.486;6.610;2023-04-15T11:13:15;7.27;;;4.10;;
3004;SDS011;1512;51.486;6.610;2023-04-15T11:17:27;4.30;;;3.63;;
3004;SDS011;1512;51.486;6.610;2023-04-15T11:21:39;9.03;;;5.07;;
3004;SDS011;1512;51.486;6.610;2023-04-15T11:25:48;4.90;;;4.00;;
3004;SDS011;1512;51.486;6.610;2023-04-15T11:29:57;5.97;;;5.37;;
3004;SDS011;1512;51.486;6.610;2023-04-15T11:34:05;5.07;;;4.50;;
3004;SDS011;1512;51.486;6.610;2023-04-15T11:38:14;5.20;;;4.70;;
3004;SDS011;1512;51.486;6.610;2023-04-15T11:42:24;7.40;;;4.73;;
3004;SDS011;1512;51.486;6.610;2023-04-15T11:46:35;4.50;;;4.07;;
3004;SDS011;1512;51.486;6.610;2023-04-15T11:50:44;5.07;;;4.47;;
3004;SDS011;1512;51.486;6.610;2023-04-15T11:55:00;5.77;;;4.40;;
3004;SDS011;1512;51.486;6.610;2023-04-15T11:59:04;4.80;;;4.20;;
3004;SDS011;1512;51.486;6.610;2023-04-15T12:03:22;5.30;;;4.37;;
3004;SDS011;1512;51.486;6.610;2023-04-15T12:12:06;4.60;;;3.90;;
3004;SDS011;1512;51.486;6.610;2023-04-15T12:16:17;4.63;;;4.13;;
3004;SDS011;1512;51.486;6.610;2023-04-15T12:20:26;4.80;;;4.03;;
3004;SDS011;1512;51.486;6.610;2023-04-15T12:24:38;5.53;;;4.03;;
3004;SDS011;1512;51.486;6.610;2023-04-15T12:28:46;5.23;;;4.30;;
3004;SDS011;1512;51.486;6.610;2023-04-15T12:32:56;4.40;;;3.90;;
3004;SDS011;1512;51.486;6.610;2023-04-15T12:37:07;4.13;;;3.73;;
3004;SDS011;1512;51.486;6.610;2023-04-15T12:41:18;5.00;;;4.40;;
3004;SDS011;1512;51.486;6.610;2023-04-15T12:45:28;5.97;;;4.30;;
3004;SDS011;1512;51.486;6.610;2023-04-15T12:49:38;5.20;;;4.23;;
3004;SDS011;1512;51.486;6.610;2023-04-15T12:53:47;4.87;;;4.40;;
3004;SDS011;1512;51.486;6.610;2023-04-15T12:57:56;5.27;;;3.87;;
3004;SDS011;1512;51.486;6.610;2023-04-15T13:02:04;4.10;;;3.50;;
3004;SDS011;1512;51.486;6.610;2023-04-15T13:10:42;4.67;;;4.17;;
3004;SDS011;1512;51.486;6.610;2023-04-15T13:14:51;6.30;;;4.33;;
3004;SDS011;1512;51.486;6.610;2023-04-15T13:19:00;7.03;;;4.10;;
3004;SDS011;1512;51.486;6.610;2023-04-15T13:23:10;5.10;;;3.97;;
3004;SDS011;1512;51.486;6.610;2023-04-15T13:27:19;4.07;;;3.67;;
3004;SDS011;1512;51.486;6.610;2023-04-15T13:31:29;8.10;;;4.03;;
3004;SDS011;1512;51.486;6.610;2023-04-15T13:35:38;4.75;;;3.77;;
3004;SDS011;1512;51.486;6.610;2023-04-15T13:39:47;3.97;;;3.60;;
3004;SDS011;1512;51.486;6.610;2023-04-15T13:43:56;4.43;;;3.87;;
3004;SDS011;1512;51.486;6.610;2023-04-15T13:48:06;8.03;;;4.40;;
3004;SDS011;1512;51.486;6.610;2023-04-15T13:52:15;7.73;;;4.23;;
3004;SDS011;1512;51.486;6.610;2023-04-15T13:56:24;4.43;;;4.03;;
3004;SDS011;1512;51.486;6.610;2023-04-15T14:00:36;6.33;;;3.43;;
3004;SDS011;1512;51.486;6.610;2023-04-15T14:04:45;4.67;;;3.80;;
3004;SDS011;1512;51.486;6.610;2023-04-15T14:08:54;6.10;;;4.07;;
3004;SDS011;1512;51.486;6.610;2023-04-15T14:13:02;3.97;;;3.00;;
3004;SDS011;1512;51.486;6.610;2023-04-15T14:17:11;3.53;;;3.23;;
3004;SDS011;1512;51.486;6.610;2023-04-15T14:21:20;4.47;;;3.23;;
3004;SDS011;1512;51.486;6.610;2023-04-15T14:25:28;5.83;;;3.20;;
3004;SDS011;1512;51.486;6.610;2023-04-15T14:29:39;4.13;;;3.40;;
3004;SDS011;1512;51.486;6.610;2023-04-15T14:33:47;3.77;;;3.33;;
3004;SDS011;1512;51.486;6.610;2023-04-15T14:37:57;5.00;;;2.90;;
3004;SDS011;1512;51.486;6.610;2023-04-15T14:42:06;3.37;;;3.10;;
3004;SDS011;1512;51.486;6.610;2023-04-15T14:46:14;4.70;;;3.33;;
3004;SDS011;1512;51.486;6.610;2023-04-15T14:50:23;3.27;;;2.97;;
3004;SDS011;1512;51.486;6.610;2023-04-15T14:54:32;4.37;;;3.33;;
3004;SDS011;1512;51.486;6.610;2023-04-15T14:58:41;8.00;;;3.80;;
3004;SDS011;1512;51.486;6.610;2023-04-15T15:02:50;3.43;;;3.10;;
3004;SDS011;1512;51.486;6.610;2023-04-15T15:06:58;3.30;;;2.67;;
3004;SDS011;1512;51.486;6.610;2023-04-15T15:11:07;3.67;;;3.00;;
3004;SDS011;1512;51.486;6.610;2023-04-15T15:15:16;3.93;;;3.27;;
3004;SDS011;1512;51.486;6.610;2023-04-15T15:19:26;3.40;;;3.10;;
3004;SDS011;1512;51.486;6.610;2023-04-15T15:23:35;2.83;;;2.43;;
3004;SDS011;1512;51.486;6.610;2023-04-15T15:27:43;4.10;;;3.60;;
3004;SDS011;1512;51.486;6.610;2023-04-15T15:31:52;2.67;;;2.47;;
3004;SDS011;1512;51.486;6.610;2023-04-15T15:36:01;2.83;;;2.60;;
3004;SDS011;1512;51.486;6.610;2023-04-15T15:40:10;3.83;;;3.20;;
3004;SDS011;1512;51.486;6.610;2023-04-15T15:44:19;2.90;;;2.60;;
3004;SDS011;1512;51.486;6.610;2023-04-15T15:48:28;3.27;;;2.90;;
3004;SDS011;1512;51.486;6.610;2023-04-15T15:52:37;4.15;;;3.47;;
3004;SDS011;1512;51.486;6.610;2023-04-15T15:56:45;3.30;;;3.00;;
3004;SDS011;1512;51.486;6.610;2023-04-15T16:00:56;4.70;;;3.53;;
3004;SDS011;1512;51.486;6.610;2023-04-15T16:05:07;11.97;;;3.10;;
3004;SDS011;1512;51.486;6.610;2023-04-15T16:09:16;3.10;;;2.80;;
3004;SDS011;1512;51.486;6.610;2023-04-15T16:13:26;3.63;;;3.17;;
3004;SDS011;1512;51.486;6.610;2023-04-15T16:17:35;4.73;;;3.50;;
3004;SDS011;1512;51.486;6.610;2023-04-15T16:21:43;3.67;;;3.30;;
3004;SDS011;1512;51.486;6.610;2023-04-15T16:25:52;3.90;;;3.33;;
3004;SDS011;1512;51.486;6.610;2023-04-15T16:30:01;3.17;;;2.87;;
3004;SDS011;1512;51.486;6.610;2023-04-15T16:34:13;4.43;;;3.10;;
3004;SDS011;1512;51.486;6.610;2023-04-15T16:38:21;4.57;;;3.77;;
3004;SDS011;1512;51.486;6.610;2023-04-15T16:42:30;4.00;;;3.10;;
3004;SDS011;1512;51.486;6.610;2023-04-15T16:46:39;4.60;;;3.77;;
3004;SDS011;1512;51.486;6.610;2023-04-15T16:50:49;6.10;;;3.90;;
3004;SDS011;1512;51.486;6.610;2023-04-15T16:54:58;4.53;;;3.90;;
3004;SDS011;1512;51.486;6.610;2023-04-15T16:59:06;8.33;;;3.60;;
3004;SDS011;1512;51.486;6.610;2023-04-15T17:03:15;6.60;;;4.50;;
3004;SDS011;1512;51.486;6.610;2023-04-15T17:07:24;4.33;;;3.93;;
3004;SDS011;1512;51.486;6.610;2023-04-15T17:11:32;4.57;;;3.33;;
3004;SDS011;1512;51.486;6.610;2023-04-15T17:15:41;4.43;;;3.67;;
3004;SDS011;1512;51.486;6.610;2023-04-15T17:19:50;6.63;;;3.53;;
3004;SDS011;1512;51.486;6.610;2023-04-15T17:23:58;4.53;;;3.00;;
3004;SDS011;1512;51.486;6.610;2023-04-15T17:28:07;3.80;;;3.33;;
3004;SDS011;1512;51.486;6.610;2023-04-15T17:32:16;4.30;;;3.07;;
3004;SDS011;1512;51.486;6.610;2023-04-15T17:36:24;7.30;;;3.73;;
3004;SDS011;1512;51.486;6.610;2023-04-15T17:40:33;4.60;;;3.10;;
3004;SDS011;1512;51.486;6.610;2023-04-15T17:44:42;12.50;;;4.67;;
3004;SDS011;1512;51.486;6.610;2023-04-15T17:48:52;5.20;;;3.93;;
3004;SDS011;1512;51.486;6.610;2023-04-15T17:53:00;12.00;;;3.60;;
3004;SDS011;1512;51.486;6.610;2023-04-15T17:57:09;3.67;;;3.37;;
3004;SDS011;1512;51.486;6.610;2023-04-15T18:01:19;4.33;;;3.05;;
3004;SDS011;1512;51.486;6.610;2023-04-15T18:05:28;2.13;;;1.97;;
3004;SDS011;1512;51.486;6.610;2023-04-15T18:09:37;3.40;;;3.10;;
3004;SDS011;1512;51.486;6.610;2023-04-15T18:13:45;3.47;;;3.17;;
3004;SDS011;1512;51.486;6.610;2023-04-15T18:17:54;7.10;;;3.13;;
3004;SDS011;1512;51.486;6.610;2023-04-15T18:22:03;3.27;;;2.33;;
3004;SDS011;1512;51.486;6.610;2023-04-15T18:26:12;3.37;;;2.83;;
3004;SDS011;1512;51.486;6.610;2023-04-15T18:30:21;5.70;;;3.77;;
3004;SDS011;1512;51.486;6.610;2023-04-15T18:34:30;2.55;;;2.35;;
3004;SDS011;1512;51.486;6.610;2023-04-15T18:38:39;2.77;;;2.57;;
3004;SDS011;1512;51.486;6.610;2023-04-15T18:42:47;4.33;;;3.87;;
3004;SDS011;1512;51.486;6.610;2023-04-15T18:46:58;5.00;;;3.03;;
3004;SDS011;1512;51.486;6.610;2023-04-15T18:51:07;10.80;;;4.57;;
3004;SDS011;1512;51.486;6.610;2023-04-15T18:55:16;8.63;;;3.10;;
3004;SDS011;1512;51.486;6.610;2023-04-15T18:59:25;3.60;;;2.63;;
3004;SDS011;1512;51.486;6.610;2023-04-15T19:03:36;5.10;;;3.60;;
3004;SDS011;1512;51.486;6.610;2023-04-15T19:07:46;7.40;;;3.80;;
3004;SDS011;1512;51.486;6.610;2023-04-15T19:11:56;5.97;;;4.47;;
3004;SDS011;1512;51.486;6.610;2023-04-15T19:16:05;6.60;;;5.00;;
3004;SDS011;1512;51.486;6.610;2023-04-15T19:20:14;7.43;;;4.70;;
3004;SDS011;1512;51.486;6.610;2023-04-15T19:24:24;11.97;;;6.93;;
3004;SDS011;1512;51.486;6.610;2023-04-15T19:28:33;9.07;;;5.37;;
3004;SDS011;1512;51.486;6.610;2023-04-15T19:32:42;9.10;;;5.30;;
3004;SDS011;1512;51.486;6.610;2023-04-15T19:36:50;5.00;;;4.23;;
3004;SDS011;1512;51.486;6.610;2023-04-15T19:40:59;8.03;;;4.47;;
3004;SDS011;1512;51.486;6.610;2023-04-15T19:49:36;12.03;;;5.17;;
3004;SDS011;1512;51.486;6.610;2023-04-15T19:53:45;5.23;;;4.50;;
3004;SDS011;1512;51.486;6.610;2023-04-15T19:57:55;10.57;;;5.43;;
3004;SDS011;1512;51.486;6.610;2023-04-15T20:02:04;11.65;;;4.08;;
3004;SDS011;1512;51.486;6.610;2023-04-15T20:06:14;9.63;;;4.97;;
3004;SDS011;1512;51.486;6.610;2023-04-15T20:10:23;16.50;;;5.07;;
3004;SDS011;1512;51.486;6.610;2023-04-15T20:14:33;5.83;;;4.57;;
3004;SDS011;1512;51.486;6.610;2023-04-15T20:18:41;9.20;;;4.10;;
3004;SDS011;1512;51.486;6.610;2023-04-15T20:22:50;4.17;;;3.43;;
3004;SDS011;1512;51.486;6.610;2023-04-15T20:26:59;3.57;;;3.27;;
3004;SDS011;1512;51.486;6.610;2023-04-15T20:31:07;10.23;;;4.20;;
3004;SDS011;1512;51.486;6.610;2023-04-15T20:35:16;7.30;;;3.50;;
3004;SDS011;1512;51.486;6.610;2023-04-15T20:39:25;14.33;;;4.10;;
3004;SDS011;1512;51.486;6.610;2023-04-15T20:43:35;4.40;;;4.00;;
3004;SDS011;1512;51.486;6.610;2023-04-15T20:47:44;4.10;;;3.80;;
3004;SDS011;1512;51.486;6.610;2023-04-15T20:51:53;9.37;;;4.57;;
3004;SDS011;1512;51.486;6.610;2023-04-15T20:56:02;3.50;;;3.20;;
3004;SDS011;1512;51.486;6.610;2023-04-15T21:00:11;4.70;;;4.08;;
3004;SDS011;1512;51.486;6.610;2023-04-15T21:04:20;9.00;;;4.37;;
3004;SDS011;1512;51.486;6.610;2023-04-15T21:08:30;7.90;;;4.40;;
3004;SDS011;1512;51.486;6.610;2023-04-15T21:12:39;8.00;;;4.47;;
3004;SDS011;1512;51.486;6.610;2023-04-15T21:16:49;8.20;;;4.03;;
3004;SDS011;1512;51.486;6.610;2023-04-15T21:20:58;7.17;;;5.47;;
3004;SDS011;1512;51.486;6.610;2023-04-15T21:25:09;8.07;;;4.30;;
3004;SDS011;1512;51.486;6.610;2023-04-15T21:29:17;14.33;;;4.60;;
3004;SDS011;1512;51.486;6.610;2023-04-15T21:33:26;5.53;;;4.50;;
3004;SDS011;1512;51.486;6.610;2023-04-15T21:37:35;6.63;;;5.00;;
3004;SDS011;1512;51.486;6.610;2023-04-15T21:41:43;16.33;;;5.20;;
3004;SDS011;1512;51.486;6.610;2023-04-15T21:45:52;8.50;;;5.07;;
3004;SDS011;1512;51.486;6.610;2023-04-15T21:50:02;9.43;;;4.03;;
3004;SDS011;1512;51.486;6.610;2023-04-15T21:54:12;7.83;;;4.77;;
3004;SDS011;1512;51.486;6.610;2023-04-15T21:58:21;5.73;;;4.17;;
3004;SDS011;1512;51.486;6.610;2023-04-15T22:02:29;8.10;;;4.77;;
3004;SDS011;1512;51.486;6.610;2023-04-15T22:06:39;6.93;;;4.57;;
3004;SDS011;1512;51.486;6.610;2023-04-15T22:10:47;4.90;;;4.47;;
3004;SDS011;1512;51.486;6.610;2023-04-15T22:14:56;7.90;;;5.13;;
3004;SDS011;1512;51.486;6.610;2023-04-15T22:19:05;4.62;;;4.20;;
3004;SDS011;1512;51.486;6.610;2023-04-15T22:23:14;5.83;;;4.20;;
3004;SDS011;1512;51.486;6.610;2023-04-15T22:27:26;6.03;;;3.90;;
3004;SDS011;1512;51.486;6.610;2023-04-15T22:31:34;8.37;;;4.97;;
3004;SDS011;1512;51.486;6.610;2023-04-15T22:35:43;6.73;;;5.17;;
3004;SDS011;1512;51.486;6.610;2023-04-15T22:39:52;8.93;;;5.10;;
3004;SDS011;1512;51.486;6.610;2023-04-15T22:44:00;5.90;;;4.93;;
3004;SDS011;1512;51.486;6.610;2023-04-15T22:48:09;6.30;;;5.37;;
3004;SDS011;1512;51.486;6.610;2023-04-15T22:52:18;9.20;;;6.10;;
3004;SDS011;1512;51.486;6.610;2023-04-15T22:56:29;15.10;;;7.40;;
3004;SDS011;1512;51.486;6.610;2023-04-15T23:00:41;5.63;;;5.00;;
3004;SDS011;1512;51.486;6.610;2023-04-15T23:04:50;10.40;;;5.47;;
3004;SDS011;1512;51.486;6.610;2023-04-15T23:08:59;7.50;;;4.93;;
3004;SDS011;1512;51.486;6.610;2023-04-15T23:13:11;8.40;;;5.00;;
3004;SDS011;1512;51.486;6.610;2023-04-15T23:17:21;6.50;;;4.77;;
3004;SDS011;1512;51.486;6.610;2023-04-15T23:21:33;7.03;;;6.03;;
3004;SDS011;1512;51.486;6.610;2023-04-15T23:25:45;10.00;;;5.50;;
3004;SDS011;1512;51.486;6.610;2023-04-15T23:29:59;8.50;;;5.60;;
3004;SDS011;1512;51.486;6.610;2023-04-15T23:34:08;9.97;;;6.03;;
3004;SDS011;1512;51.486;6.610;2023-04-15T23:38:17;10.93;;;5.97;;
3004;SDS011;1512;51.486;6.610;2023-04-15T23:42:32;13.53;;;6.00;;
3004;SDS011;1512;51.486;6.610;2023-04-15T23:46:41;10.03;;;5.40;;
3004;SDS011;1512;51.486;6.610;2023-04-15T23:50:50;9.77;;;5.93;;
3004;SDS011;1512;51.486;6.610;2023-04-15T23:54:59;6.27;;;4.97;;
3004;SDS011;1512;51.486;6.610;2023-04-15T23:59:12;7.87;;;5.47;;
